Time;durP1;ratioP1;P1;durP2;ratioP2;P2;SDS_P1;SDS_P2;PMS_P1;PMS_P2;Temp;Humidity;BMP_temperature;BMP_pressure;BME280_temperature;BME280_humidity;BME280_pressure;Samples;Min_cycle;Max_cycle;Signal;HPM_P1;HPM_P2
2022/10/17 00:00:10;;;;;;;6.90;2.53;;;;;;;15.42;83.00;99969.03;345070;28;752;-86
2022/10/17 00:00:22;;;;;;;4.03;2.40;;;;;;;15.42;83.31;99972.50;343932;28;1495;-86
2022/10/17 00:00:34;;;;;;;4.00;2.60;;;;;;;15.41;83.47;99965.53;343947;28;737;-85
2022/10/17 00:00:47;;;;;;;5.57;2.70;;;;;;;15.42;83.49;99967.25;343739;28;940;-85
2022/10/17 00:00:59;;;;;;;5.90;2.60;;;;;;;15.43;83.41;99966.31;344060;28;783;-86
2022/10/17 00:01:12;;;;;;;6.40;2.50;;;;;;;15.44;83.66;99962.78;342183;28;1166;-86
2022/10/17 00:01:24;;;;;;;5.97;2.40;;;;;;;15.45;83.36;99967.09;343015;28;1169;-85
2022/10/17 00:01:36;;;;;;;5.78;2.38;;;;;;;15.46;83.59;99968.81;343714;28;921;-86
2022/10/17 00:01:48;;;;;;;4.53;2.30;;;;;;;15.48;83.50;99966.97;343893;28;749;-86
2022/10/17 00:02:00;;;;;;;5.35;2.35;;;;;;;15.52;83.43;99968.50;343503;28;1087;-86
2022/10/17 00:02:12;;;;;;;6.50;2.40;;;;;;;15.54;82.81;99961.41;343432;28;1067;-86
2022/10/17 00:02:24;;;;;;;8.23;2.38;;;;;;;15.56;83.30;99972.69;343666;28;990;-86
2022/10/17 00:02:35;;;;;;;8.48;2.25;;;;;;;15.58;83.25;99967.38;343796;28;804;-86
2022/10/17 00:02:47;;;;;;;6.68;2.10;;;;;;;15.62;83.06;99973.31;342162;28;1068;-86
2022/10/17 00:02:59;;;;;;;3.60;1.98;;;;;;;15.62;82.89;99973.31;342520;28;730;-86
2022/10/17 00:03:11;;;;;;;5.22;2.15;;;;;;;15.62;82.83;99973.31;342642;28;1076;-86
2022/10/17 00:03:23;;;;;;;4.65;2.40;;;;;;;15.60;82.82;99969.94;343089;28;1904;-86
2022/10/17 00:03:37;;;;;;;5.07;2.40;;;;;;;15.56;82.78;99979.69;344205;28;725;-86
2022/10/17 00:03:49;;;;;;;3.58;2.20;;;;;;;15.57;82.84;99987.50;343606;28;1043;-85
2022/10/17 00:04:01;;;;;;;4.25;2.25;;;;;;;15.45;82.87;99987.22;343309;28;1077;-86
2022/10/17 00:04:13;;;;;;;4.57;2.60;;;;;;;15.46;82.90;99984.53;342016;28;1113;-85
2022/10/17 00:04:25;;;;;;;4.97;2.80;;;;;;;15.45;83.26;99984.59;342065;28;1039;-86
2022/10/17 00:04:37;;;;;;;5.85;2.78;;;;;;;15.47;83.27;99985.34;342229;28;840;-87
2022/10/17 00:04:49;;;;;;;6.03;2.53;;;;;;;15.44;83.18;99986.38;341905;28;1205;-86
2022/10/17 00:05:01;;;;;;;3.92;2.50;;;;;;;15.45;83.32;99987.22;342205;28;1071;-86
2022/10/17 00:05:14;;;;;;;3.92;2.50;;;;;;;15.41;83.13;99981.25;341993;28;1021;-88
2022/10/17 00:05:26;;;;;;;4.20;2.50;;;;;;;15.42;83.34;99982.97;342455;28;753;-86
2022/10/17 00:05:44;;;;;;;4.40;2.55;;;;;;;15.41;83.20;99981.25;342739;28;741;-86
2022/10/17 00:05:55;;;;;;;5.13;2.50;;;;;;;15.42;83.49;99982.13;344432;28;1217;-85
2022/10/17 00:06:13;;;;;;;7.00;2.60;;;;;;;15.38;83.39;99974.41;344452;28;843;-88
2022/10/17 00:06:25;;;;;;;6.40;2.35;;;;;;;15.40;83.65;99968.25;346003;28;1200;-86
2022/10/17 00:06:38;;;;;;;5.07;2.30;;;;;;;15.36;83.48;99973.63;346264;28;904;-86
2022/10/17 00:06:50;;;;;;;3.50;2.33;;;;;;;15.40;83.95;99974.34;346582;28;790;-86
2022/10/17 00:07:02;;;;;;;3.80;2.25;;;;;;;15.42;83.82;99975.09;346415;28;1017;-86
2022/10/17 00:07:14;;;;;;;4.32;2.28;;;;;;;15.44;83.48;99975.03;346178;28;1273;-85
2022/10/17 00:07:26;;;;;;;3.90;2.47;;;;;;;15.44;83.55;99970.66;345764;28;748;-86
2022/10/17 00:07:38;;;;;;;5.97;2.63;;;;;;;15.47;83.37;99970.47;344777;28;1030;-86
2022/10/17 00:07:51;;;;;;;5.82;2.50;;;;;;;15.47;83.24;99974.88;343632;28;1172;-85
2022/10/17 00:08:03;;;;;;;3.42;2.10;;;;;;;15.50;83.33;99980.84;343352;28;1150;-86
2022/10/17 00:08:16;;;;;;;4.00;2.00;;;;;;;15.51;83.00;99977.31;343902;28;745;-86
2022/10/17 00:08:28;;;;;;;3.97;2.20;;;;;;;15.53;83.33;99980.69;343553;28;1097;-85
2022/10/17 00:08:42;;;;;;;4.32;2.30;;;;;;;15.52;82.91;99979.00;341340;28;1346;-87
2022/10/17 00:08:54;;;;;;;4.85;2.35;;;;;;;15.49;82.93;99976.53;343772;28;1046;-85
2022/10/17 00:09:06;;;;;;;4.90;2.20;;;;;;;15.51;82.88;99977.31;343436;28;1232;-86
2022/10/17 00:09:18;;;;;;;4.63;2.20;;;;;;;15.52;82.91;99980.75;342360;28;1118;-85
2022/10/17 00:09:30;;;;;;;4.97;2.33;;;;;;;15.53;82.71;99985.06;342156;28;1227;-85
2022/10/17 00:09:43;;;;;;;5.63;2.50;;;;;;;15.51;83.08;99977.31;342705;28;1084;-85
2022/10/17 00:09:54;;;;;;;4.63;2.60;;;;;;;15.43;83.33;99984.66;343351;28;1107;-85
2022/10/17 00:10:07;;;;;;;3.78;2.80;;;;;;;15.44;83.40;99975.88;344180;28;1911;-87
2022/10/17 00:10:20;;;;;;;3.60;2.85;;;;;;;15.46;83.37;99974.03;343807;28;755;-86
2022/10/17 00:10:32;;;;;;;3.35;2.70;;;;;;;15.42;83.44;99977.72;343080;28;997;-86
2022/10/17 00:10:45;;;;;;;4.53;2.45;;;;;;;15.40;83.51;99978.72;342016;28;1016;-85
2022/10/17 00:11:04;;;;;;;6.60;2.33;;;;;;;15.41;83.61;99973.41;345113;28;1176;-86
2022/10/17 00:11:19;;;;;;;9.07;2.35;;;;;;;15.43;83.48;99976.78;345414;28;1092;-86
2022/10/17 00:11:31;;;;;;;8.48;2.45;;;;;;;15.44;83.36;99975.88;344855;28;1164;-85
2022/10/17 00:11:43;;;;;;;4.95;2.33;;;;;;;15.47;83.38;99975.72;345060;28;886;-86
2022/10/17 00:11:55;;;;;;;4.32;2.30;;;;;;;15.47;83.33;99978.34;346257;28;1215;-86
2022/10/17 00:12:07;;;;;;;4.67;2.40;;;;;;;15.48;83.28;99976.59;344983;28;1222;-86
2022/10/17 00:12:19;;;;;;;6.63;2.53;;;;;;;15.49;83.19;99984.38;344950;28;1051;-87
2022/10/17 00:12:31;;;;;;;7.53;2.40;;;;;;;15.48;83.14;99979.22;344070;28;1137;-86
2022/10/17 00:12:43;;;;;;;5.18;2.38;;;;;;;15.48;82.91;99979.22;343986;28;753;-87
2022/10/17 00:12:55;;;;;;;4.70;2.60;;;;;;;15.47;82.98;99985.34;343816;28;809;-86
2022/10/17 00:13:07;;;;;;;4.43;2.60;;;;;;;15.45;83.18;99985.44;342291;28;1169;-85
2022/10/17 00:13:19;;;;;;;4.15;2.30;;;;;;;15.47;83.08;99986.19;342073;28;1040;-86
2022/10/17 00:13:32;;;;;;;3.53;2.40;;;;;;;15.46;83.10;99983.69;342684;28;729;-86
2022/10/17 00:13:46;;;;;;;7.32;2.50;;;;;;;15.49;83.12;99978.28;341336;28;901;-86
2022/10/17 00:13:58;;;;;;;10.50;2.50;;;;;;;15.48;83.45;99974.81;342686;28;779;-86
2022/10/17 00:14:10;;;;;;;7.60;2.60;;;;;;;15.48;83.17;99974.81;342548;28;757;-86
2022/10/17 00:14:22;;;;;;;5.88;2.38;;;;;;;15.49;83.21;99971.28;342246;28;1075;-86
2022/10/17 00:14:34;;;;;;;3.47;2.22;;;;;;;15.50;83.33;99975.59;343434;28;1088;-85
2022/10/17 00:14:46;;;;;;;3.80;2.28;;;;;;;15.52;83.16;99972.91;344558;28;1094;-86
2022/10/17 00:14:58;;;;;;;4.35;2.30;;;;;;;15.53;83.23;99964.97;346583;28;718;-86
2022/10/17 00:15:13;;;;;;;4.80;2.20;;;;;;;15.55;83.04;99970.13;346488;28;1083;-85
2022/10/17 00:15:25;;;;;;;4.25;2.20;;;;;;;15.56;83.18;99970.06;346419;28;907;-86
2022/10/17 00:15:37;;;;;;;4.03;2.30;;;;;;;15.57;83.28;99969.16;345985;28;1160;-86
2022/10/17 00:15:49;;;;;;;5.13;2.33;;;;;;;15.60;83.29;99975.16;344779;28;1151;-85
2022/10/17 00:16:01;;;;;;;5.50;2.45;;;;;;;15.61;83.29;99971.59;344630;28;1071;-87
2022/10/17 00:16:14;;;;;;;4.47;2.38;;;;;;;15.62;83.12;99973.31;344727;28;1035;-86
2022/10/17 00:16:35;;;;;;;6.18;2.30;;;;;;;15.64;83.09;99971.47;343886;28;1596;-86
2022/10/17 00:16:47;;;;;;;4.50;2.20;;;;;;;15.67;83.07;99971.31;343217;28;1040;-87
2022/10/17 00:16:59;;;;;;;3.00;2.10;;;;;;;15.66;83.03;99970.47;344018;28;1169;-86
2022/10/17 00:17:11;;;;;;;4.25;2.17;;;;;;;15.67;83.10;99971.31;344912;28;1167;-86
2022/10/17 00:17:23;;;;;;;5.40;2.47;;;;;;;15.68;82.78;99973.03;344997;28;1155;-86
2022/10/17 00:17:35;;;;;;;5.50;2.50;;;;;;;15.70;82.80;99981.66;345818;28;1640;-85
2022/10/17 00:17:47;;;;;;;4.50;2.28;;;;;;;15.70;82.97;99971.16;345327;28;1058;-86
2022/10/17 00:18:01;;;;;;;4.40;2.22;;;;;;;15.68;82.27;99973.03;343785;28;879;-86
2022/10/17 00:18:12;;;;;;;5.35;2.22;;;;;;;15.71;82.36;99978.09;343606;28;1152;-86
2022/10/17 00:18:25;;;;;;;4.53;2.20;;;;;;;15.70;82.33;99979.03;346065;28;1173;-86
2022/10/17 00:18:37;;;;;;;3.83;2.25;;;;;;;15.71;82.30;99978.09;347510;28;1143;-87
2022/10/17 00:18:49;;;;;;;4.07;2.47;;;;;;;15.71;82.23;99972.84;346182;28;1125;-86
2022/10/17 00:19:02;;;;;;;4.95;2.42;;;;;;;15.72;82.26;99971.94;346337;28;1437;-86
2022/10/17 00:19:14;;;;;;;5.47;2.40;;;;;;;15.72;82.11;99975.44;346740;28;785;-85
2022/10/17 00:19:26;;;;;;;5.45;2.33;;;;;;;15.70;82.24;99971.16;345837;28;1733;-86
2022/10/17 00:19:38;;;;;;;5.30;2.30;;;;;;;15.70;82.24;99976.41;344272;28;753;-85
2022/10/17 00:19:50;;;;;;;4.60;2.13;;;;;;;15.67;82.22;99964.28;344579;28;1092;-85
2022/10/17 00:20:03;;;;;;;3.25;2.15;;;;;;;15.67;82.14;99966.91;342481;28;737;-85
2022/10/17 00:20:15;;;;;;;4.35;2.17;;;;;;;15.64;82.31;99963.59;342236;28;1040;-87
2022/10/17 00:20:29;;;;;;;6.20;2.42;;;;;;;15.64;82.57;99967.06;343071;28;746;-86
2022/10/17 00:20:41;;;;;;;7.22;2.65;;;;;;;15.62;82.51;99963.69;343563;28;1096;-86
2022/10/17 00:20:53;;;;;;;4.30;2.20;;;;;;;15.62;82.63;99962.84;344200;28;1064;-87
2022/10/17 00:21:05;;;;;;;3.05;2.05;;;;;;;15.61;82.64;99961.13;345132;28;1188;-86
2022/10/17 00:21:18;;;;;;;3.55;2.15;;;;;;;15.61;82.73;99961.97;345821;28;943;-86
2022/10/17 00:21:30;;;;;;;5.43;2.30;;;;;;;15.63;82.87;99964.53;346899;28;778;-86
2022/10/17 00:21:42;;;;;;;6.45;2.28;;;;;;;15.64;82.55;99961.81;345730;28;1264;-85
2022/10/17 00:21:54;;;;;;;6.05;2.20;;;;;;;15.65;82.71;99962.66;345210;28;765;-85
2022/10/17 00:22:06;;;;;;;5.93;2.20;;;;;;;15.66;82.64;99969.63;343860;28;964;-86
2022/10/17 00:22:18;;;;;;;5.35;2.20;;;;;;;15.65;82.72;99968.75;345195;28;736;-86
2022/10/17 00:22:30;;;;;;;4.72;2.22;;;;;;;15.67;82.55;99963.44;345210;28;748;-85
2022/10/17 00:22:42;;;;;;;3.58;2.22;;;;;;;15.69;82.56;99965.06;344801;28;1007;-85
2022/10/17 00:22:54;;;;;;;2.35;2.00;;;;;;;15.72;82.46;99974.56;345209;28;875;-86
2022/10/17 00:23:06;;;;;;;3.22;1.92;;;;;;;15.73;82.26;99966.63;345283;28;849;-86
2022/10/17 00:23:18;;;;;;;4.72;1.90;;;;;;;15.73;82.28;99971.88;343735;28;1200;-86
2022/10/17 00:23:31;;;;;;;7.03;1.98;;;;;;;15.75;82.11;99969.19;345308;28;1188;-85
2022/10/17 00:23:45;;;;;;;6.35;2.13;;;;;;;15.75;82.03;99979.66;344922;28;1197;-86
2022/10/17 00:23:58;;;;;;;4.10;2.40;;;;;;;15.73;82.14;99976.28;345239;28;771;-85
2022/10/17 00:24:10;;;;;;;3.05;2.22;;;;;;;15.72;81.89;99985.06;345562;28;936;-85
2022/10/17 00:24:22;;;;;;;4.95;2.30;;;;;;;15.64;81.85;99974.09;344949;28;1238;-85
2022/10/17 00:24:34;;;;;;;6.70;2.70;;;;;;;15.61;82.09;99982.09;344724;28;1107;-86
2022/10/17 00:24:45;;;;;;;6.18;2.70;;;;;;;15.58;82.10;99978.69;344394;28;1126;-86
2022/10/17 00:24:57;;;;;;;4.78;2.35;;;;;;;15.60;82.07;99980.41;345114;28;1122;-86
2022/10/17 00:25:10;;;;;;;4.18;2.30;;;;;;;15.55;81.88;99977.97;345167;28;871;-85
2022/10/17 00:25:22;;;;;;;4.40;2.40;;;;;;;15.50;81.67;99978.22;345686;28;1054;-85
2022/10/17 00:25:34;;;;;;;4.45;2.38;;;;;;;15.47;82.30;99975.72;346471;28;721;-85
2022/10/17 00:25:46;;;;;;;3.95;2.40;;;;;;;15.48;82.11;99972.19;348453;28;817;-86
2022/10/17 00:26:01;;;;;;;4.32;2.30;;;;;;;15.51;82.30;99977.31;349313;28;835;-85
2022/10/17 00:26:14;;;;;;;6.30;2.30;;;;;;;15.53;82.30;99974.59;347291;28;939;-86
2022/10/17 00:26:28;;;;;;;5.07;2.40;;;;;;;15.53;82.36;99978.06;347283;28;784;-86
2022/10/17 00:26:41;;;;;;;3.92;2.35;;;;;;;15.53;82.43;99974.59;346422;28;1018;-85
2022/10/17 00:26:52;;;;;;;4.45;2.25;;;;;;;15.51;82.57;99976.44;346570;28;1051;-85
2022/10/17 00:27:04;;;;;;;3.95;2.30;;;;;;;15.52;82.42;99968.50;346494;28;1166;-85
2022/10/17 00:27:16;;;;;;;2.85;2.30;;;;;;;15.54;82.51;99969.28;346588;28;731;-86
2022/10/17 00:27:28;;;;;;;5.47;2.50;;;;;;;15.54;82.50;99977.13;348050;28;878;-85
2022/10/17 00:27:41;;;;;;;6.80;2.55;;;;;;;15.55;82.49;99973.63;347476;28;1014;-85
2022/10/17 00:27:53;;;;;;;5.93;2.58;;;;;;;15.58;82.50;99975.22;346848;28;751;-88
2022/10/17 00:28:08;;;;;;;3.83;2.38;;;;;;;15.61;82.31;99982.94;343790;28;888;-85
2022/10/17 00:28:20;;;;;;;2.97;2.10;;;;;;;15.61;82.36;99977.69;344634;28;984;-85
2022/10/17 00:28:32;;;;;;;2.92;2.20;;;;;;;15.61;82.04;99971.59;346342;28;1231;-86
2022/10/17 00:28:46;;;;;;;3.28;2.38;;;;;;;15.58;81.95;99981.31;344613;28;1626;-86
2022/10/17 00:28:58;;;;;;;3.47;2.60;;;;;;;15.49;81.91;99979.16;343490;28;933;-85
2022/10/17 00:29:10;;;;;;;5.07;2.45;;;;;;;15.47;81.92;99980.97;342831;28;916;-85
2022/10/17 00:29:22;;;;;;;5.10;2.42;;;;;;;15.50;81.98;99983.44;342323;28;1046;-85
2022/10/17 00:29:34;;;;;;;3.70;2.55;;;;;;;15.47;82.07;99985.34;343333;28;1060;-85
2022/10/17 00:29:50;;;;;;;3.08;2.67;;;;;;;15.44;82.31;99985.53;343200;28;1837;-86
2022/10/17 00:30:04;;;;;;;2.70;2.10;;;;;;;15.44;82.25;99983.75;342192;28;1032;-85
2022/10/17 00:30:17;;;;;;;2.72;2.28;;;;;;;15.42;82.23;99985.59;343658;28;1243;-86
2022/10/17 00:30:29;;;;;;;3.90;2.60;;;;;;;15.45;82.13;99976.72;344942;28;1829;-86
2022/10/17 00:30:41;;;;;;;5.00;2.80;;;;;;;15.42;82.49;99982.97;343546;28;1028;-86
2022/10/17 00:31:00;;;;;;;4.68;2.60;;;;;;;15.41;82.61;99976.00;344266;28;1421;-85
2022/10/17 00:31:12;;;;;;;4.72;2.63;;;;;;;15.42;82.61;99982.97;343099;28;863;-85
2022/10/17 00:31:24;;;;;;;5.43;2.60;;;;;;;15.43;82.64;99979.41;343900;28;1073;-85
2022/10/17 00:31:36;;;;;;;5.82;2.50;;;;;;;15.44;82.65;99980.28;345252;28;744;-86
2022/10/17 00:31:48;;;;;;;5.93;2.42;;;;;;;15.45;82.83;99977.56;343668;28;1651;-86
2022/10/17 00:32:00;;;;;;;4.68;2.50;;;;;;;15.46;83.08;99978.44;343880;28;1887;-86
2022/10/17 00:32:12;;;;;;;5.22;2.60;;;;;;;15.47;82.87;99975.72;342682;28;1050;-85
2022/10/17 00:32:24;;;;;;;6.10;2.47;;;;;;;15.45;82.81;99974.94;342320;28;1036;-86
2022/10/17 00:32:36;;;;;;;6.78;2.28;;;;;;;15.46;82.85;99971.41;340850;28;1658;-86
2022/10/17 00:32:48;;;;;;;6.13;2.10;;;;;;;15.46;82.93;99974.03;343444;28;1606;-85
2022/10/17 00:33:00;;;;;;;7.38;2.53;;;;;;;15.47;82.57;99970.47;344110;28;825;-86
2022/10/17 00:33:12;;;;;;;7.68;2.80;;;;;;;15.49;82.73;99976.53;343488;28;1075;-85
2022/10/17 00:33:25;;;;;;;6.28;2.67;;;;;;;15.51;82.38;99976.44;343438;28;1168;-86
2022/10/17 00:33:38;;;;;;;5.10;2.20;;;;;;;15.53;82.46;99980.69;344699;28;1027;-85
2022/10/17 00:33:50;;;;;;;5.35;2.20;;;;;;;15.54;82.34;99982.38;344148;28;1568;-86
2022/10/17 00:34:02;;;;;;;6.65;2.42;;;;;;;15.56;82.16;99985.78;343998;28;1155;-86
2022/10/17 00:34:14;;;;;;;8.77;2.45;;;;;;;15.57;82.07;99976.13;345271;28;1055;-87
2022/10/17 00:34:28;;;;;;;6.25;2.22;;;;;;;15.57;81.83;99984.88;346278;28;1101;-86
2022/10/17 00:34:40;;;;;;;3.88;2.10;;;;;;;15.56;81.63;99991.00;346289;28;864;-86
2022/10/17 00:34:52;;;;;;;3.70;2.45;;;;;;;15.47;81.68;99975.72;347239;28;1671;-86
2022/10/17 00:35:04;;;;;;;5.88;2.72;;;;;;;15.36;81.84;99988.50;346371;28;1111;-85
2022/10/17 00:35:16;;;;;;;6.55;2.75;;;;;;;15.33;82.33;99986.00;344980;28;1090;-86
2022/10/17 00:35:28;;;;;;;5.90;2.47;;;;;;;15.34;82.44;99979.88;344836;28;1119;-86
2022/10/17 00:35:40;;;;;;;8.50;2.50;;;;;;;15.35;82.38;99981.53;344586;28;1023;-86
2022/10/17 00:36:02;;;;;;;6.65;2.33;;;;;;;15.33;82.61;99983.38;343201;28;1539;-86
2022/10/17 00:36:17;;;;;;;5.15;2.38;;;;;;;15.31;82.74;99977.38;344609;28;1848;-85
2022/10/17 00:36:33;;;;;;;6.20;2.53;;;;;;;15.31;82.76;99985.22;344100;28;839;-85
2022/10/17 00:36:45;;;;;;;5.15;2.38;;;;;;;15.31;82.70;99982.63;345615;28;1675;-83
2022/10/17 00:36:57;;;;;;;5.28;2.40;;;;;;;15.30;82.70;99978.31;344217;28;1164;-83
2022/10/17 00:37:09;;;;;;;5.72;2.90;;;;;;;15.31;82.64;99980.00;342871;28;1193;-83
2022/10/17 00:37:21;;;;;;;5.30;2.75;;;;;;;15.34;82.54;99985.09;342943;28;1059;-83
2022/10/17 00:37:33;;;;;;;4.80;2.40;;;;;;;15.35;82.51;99982.41;343793;28;1152;-83
2022/10/17 00:37:45;;;;;;;4.22;2.45;;;;;;;15.36;82.64;99985.88;343826;28;1125;-83
2022/10/17 00:37:57;;;;;;;5.75;2.40;;;;;;;15.37;82.69;99983.19;343725;28;1329;-83
2022/10/17 00:38:09;;;;;;;5.78;2.30;;;;;;;15.38;82.66;99981.41;345060;28;1729;-83
2022/10/17 00:38:21;;;;;;;5.15;2.28;;;;;;;15.39;82.71;99977.84;344880;28;1041;-83
2022/10/17 00:38:34;;;;;;;3.80;2.45;;;;;;;15.41;82.35;99986.50;345142;28;1059;-83
2022/10/17 00:38:51;;;;;;;4.45;2.40;;;;;;;15.41;82.39;99986.50;344339;28;1679;-82
2022/10/17 00:39:03;;;;;;;4.40;2.35;;;;;;;15.42;82.27;99988.22;343410;28;1647;-83
2022/10/17 00:39:15;;;;;;;3.95;2.38;;;;;;;15.42;82.09;99993.44;344489;28;1134;-83
2022/10/17 00:39:27;;;;;;;4.07;2.40;;;;;;;15.42;82.34;99985.59;345478;28;1070;-83
2022/10/17 00:39:39;;;;;;;3.80;2.40;;;;;;;15.42;82.29;99990.00;344356;28;1078;-83
2022/10/17 00:39:51;;;;;;;5.85;2.40;;;;;;;15.43;82.24;99989.88;343773;28;1536;-83
2022/10/17 00:40:05;;;;;;;5.70;2.40;;;;;;;15.44;82.28;99983.75;345575;28;1555;-82
2022/10/17 00:40:17;;;;;;;5.22;2.33;;;;;;;15.44;82.26;99986.38;343836;28;1095;-83
2022/10/17 00:40:29;;;;;;;4.88;2.17;;;;;;;15.48;82.05;99993.16;343801;28;1533;-83
2022/10/17 00:40:41;;;;;;;5.45;2.25;;;;;;;15.50;82.17;99995.72;342543;28;1140;-79
2022/10/17 00:40:53;;;;;;;4.90;2.50;;;;;;;15.50;82.00;99993.94;343363;28;1321;-81
2022/10/17 00:41:08;;;;;;;4.10;2.47;;;;;;;15.43;81.81;99991.66;344441;28;886;-81
2022/10/17 00:41:23;;;;;;;3.70;2.47;;;;;;;15.44;81.84;99991.59;344394;28;809;-81
2022/10/17 00:41:35;;;;;;;5.70;2.67;;;;;;;15.42;81.92;99985.59;342745;28;1135;-81
2022/10/17 00:42:12;;;;;;;2.90;2.60;;;;;;;15.39;82.00;99990.97;340392;28;1730;-68
2022/10/17 00:42:30;;;;;;;3.85;2.38;;;;;;;15.41;82.03;99990.88;341713;28;1436;-68
2022/10/17 00:42:42;;;;;;;6.50;2.50;;;;;;;15.39;82.27;99988.34;341432;28;1941;-68
2022/10/17 00:42:54;;;;;;;6.70;2.58;;;;;;;15.41;82.13;99985.66;341729;28;1731;-68
2022/10/17 00:43:15;;;;;;;5.40;2.50;;;;;;;15.42;82.35;99982.13;341316;28;1908;-69
2022/10/17 00:43:28;;;;;;;7.70;2.40;;;;;;;15.41;82.49;99981.25;342351;28;1071;-68
2022/10/17 00:44:00;;;;;;;5.95;2.53;;;;;;;15.38;82.52;99982.25;342273;28;1093;-68
2022/10/17 00:44:30;;;;;;;4.22;2.50;;;;;;;15.39;82.82;99985.72;341747;28;1947;-68
2022/10/17 00:44:45;;;;;;;3.95;2.40;;;;;;;15.41;82.59;99980.41;340983;28;1290;-68
2022/10/17 00:45:11;;;;;;;4.40;2.15;;;;;;;15.41;82.64;99981.25;341961;28;1339;-68
2022/10/17 00:45:26;;;;;;;4.65;2.10;;;;;;;15.44;82.64;99986.38;342317;28;1197;-68
2022/10/17 00:45:38;;;;;;;4.03;2.13;;;;;;;15.46;82.53;99978.44;341394;28;1211;-68
2022/10/17 00:45:50;;;;;;;4.80;2.40;;;;;;;15.47;82.40;99980.13;341439;28;1863;-68
2022/10/17 00:46:02;;;;;;;5.57;2.45;;;;;;;15.49;82.43;99979.16;342558;28;1537;-69
2022/10/17 00:46:14;;;;;;;5.25;2.50;;;;;;;15.49;82.23;99983.53;341051;28;1075;-69
2022/10/17 00:46:31;;;;;;;5.67;2.40;;;;;;;15.49;82.22;99989.63;341062;28;1058;-68
2022/10/17 00:46:43;;;;;;;6.78;2.42;;;;;;;15.49;82.26;99984.38;342261;28;2105;-68
2022/10/17 00:46:57;;;;;;;5.68;2.30;;;;;;;15.48;82.18;99982.69;342647;28;1843;-68
2022/10/17 00:47:12;;;;;;;4.90;2.17;;;;;;;15.49;82.23;99983.53;343288;28;1099;-68
2022/10/17 00:47:24;;;;;;;3.55;2.20;;;;;;;15.47;82.12;99978.34;343313;28;1400;-68
2022/10/17 00:47:37;;;;;;;3.40;2.25;;;;;;;15.49;81.98;99981.78;343378;28;1255;-68
2022/10/17 00:48:02;;;;;;;2.97;2.40;;;;;;;15.50;81.97;99980.84;342829;28;1916;-68
2022/10/17 00:48:15;;;;;;;4.75;2.38;;;;;;;15.52;81.92;99979.00;342146;28;1083;-69
2022/10/17 00:48:33;;;;;;;4.47;2.28;;;;;;;15.54;81.94;99977.13;342242;28;1834;-69
2022/10/17 00:48:47;;;;;;;5.15;2.17;;;;;;;15.53;81.72;99985.94;342188;28;1830;-69
2022/10/17 00:49:04;;;;;;;3.57;2.00;;;;;;;15.55;81.39;99984.09;342461;28;1156;-69
2022/10/17 00:49:17;;;;;;;3.80;2.00;;;;;;;15.55;81.53;99985.84;341197;28;1369;-69
2022/10/17 00:49:33;;;;;;;4.57;2.20;;;;;;;15.51;81.53;99987.78;342190;28;1336;-69
2022/10/17 00:49:46;;;;;;;5.40;2.40;;;;;;;15.47;81.37;99991.44;341952;28;1293;-69
2022/10/17 00:49:58;;;;;;;7.65;2.42;;;;;;;15.48;81.56;99987.91;342076;28;1637;-69
2022/10/17 00:50:12;;;;;;;7.70;2.33;;;;;;;15.48;81.56;99982.69;342451;28;1046;-69
2022/10/17 00:50:24;;;;;;;6.93;2.42;;;;;;;15.49;81.58;99979.16;341851;28;1616;-69
2022/10/17 00:50:40;;;;;;;6.95;2.42;;;;;;;15.49;81.62;99987.00;342932;28;1652;-69
2022/10/17 00:50:52;;;;;;;5.43;2.25;;;;;;;15.51;81.62;99987.78;342362;28;1739;-69
2022/10/17 00:51:05;;;;;;;3.97;2.10;;;;;;;15.49;81.81;99984.38;343085;28;1806;-69
2022/10/17 00:51:21;;;;;;;4.88;2.20;;;;;;;15.50;81.88;99980.00;343225;28;1364;-69
2022/10/17 00:51:39;;;;;;;3.38;2.28;;;;;;;15.51;81.84;99979.06;343419;28;1275;-69
2022/10/17 00:52:04;;;;;;;2.97;2.28;;;;;;;15.50;81.56;99980.84;342381;28;1968;-69
2022/10/17 00:52:21;;;;;;;3.95;2.30;;;;;;;15.51;81.78;99982.53;343357;28;1530;-69
2022/10/17 00:52:33;;;;;;;3.17;2.10;;;;;;;15.50;81.80;99983.44;341831;28;1117;-69
2022/10/17 00:52:47;;;;;;;2.53;2.10;;;;;;;15.51;82.01;99986.91;341322;28;1246;-69
2022/10/17 00:53:04;;;;;;;4.82;2.28;;;;;;;15.51;81.94;99982.53;341999;28;1685;-69
2022/10/17 00:53:17;;;;;;;5.53;2.30;;;;;;;15.50;81.97;99983.44;342277;28;1222;-69
2022/10/17 00:53:29;;;;;;;4.32;2.22;;;;;;;15.51;81.93;99981.66;342100;28;1123;-69
2022/10/17 00:53:41;;;;;;;5.88;2.30;;;;;;;15.50;81.81;99986.06;342299;28;1992;-69
2022/10/17 00:53:54;;;;;;;7.50;2.50;;;;;;;15.50;81.83;99980.00;341536;28;1972;-69
2022/10/17 00:54:08;;;;;;;6.05;2.55;;;;;;;15.50;81.80;99980.84;341672;28;1963;-69
2022/10/17 00:54:24;;;;;;;4.88;2.53;;;;;;;15.48;81.83;99982.69;342069;28;1459;-69
2022/10/17 00:54:42;;;;;;;5.53;2.47;;;;;;;15.49;81.86;99983.53;341528;28;1705;-69
2022/10/17 00:55:03;;;;;;;5.43;2.40;;;;;;;15.49;81.72;99984.38;341818;28;1802;-69
2022/10/17 00:55:24;;;;;;;3.55;2.20;;;;;;;15.51;82.04;99982.53;342237;28;1489;-69
2022/10/17 00:56:02;;;;;;;3.33;2.00;;;;;;;15.53;81.34;99978.06;342310;28;1606;-69
2022/10/17 00:56:15;;;;;;;3.33;2.13;;;;;;;15.49;81.34;99979.16;340052;28;1273;-69
2022/10/17 00:56:28;;;;;;;3.45;2.17;;;;;;;15.48;81.27;99985.28;342582;28;1274;-69
2022/10/17 00:56:41;;;;;;;3.15;2.20;;;;;;;15.46;81.54;99983.69;342743;28;1059;-69
2022/10/17 00:56:53;;;;;;;4.80;2.30;;;;;;;15.45;81.46;99982.81;341812;28;1898;-70
2022/10/17 00:57:06;;;;;;;4.70;2.30;;;;;;;15.46;81.45;99994.16;341881;28;1852;-70
2022/10/17 00:57:18;;;;;;;3.20;2.30;;;;;;;15.45;81.53;99988.03;342358;28;1260;-70
2022/10/17 00:57:31;;;;;;;2.92;2.30;;;;;;;15.43;81.54;99992.50;342635;28;1186;-70
2022/10/17 00:57:44;;;;;;;2.90;2.20;;;;;;;15.42;81.47;99988.22;342512;28;1319;-69
2022/10/17 00:57:58;;;;;;;5.50;2.00;;;;;;;15.42;81.39;99985.59;342874;28;1802;-69
2022/10/17 00:58:10;;;;;;;6.05;2.15;;;;;;;15.42;81.59;99984.75;343714;28;2037;-69
2022/10/17 00:58:22;;;;;;;7.47;2.20;;;;;;;15.40;81.46;99987.44;343536;28;1466;-69
2022/10/17 00:58:34;;;;;;;6.68;2.10;;;;;;;15.42;81.49;99982.13;343663;28;1644;-69
2022/10/17 00:58:47;;;;;;;6.10;2.08;;;;;;;15.42;81.56;99993.44;343679;28;1107;-69
2022/10/17 00:58:59;;;;;;;4.32;2.17;;;;;;;15.41;81.74;99986.50;343698;28;1067;-69
2022/10/17 00:59:13;;;;;;;2.70;2.20;;;;;;;15.42;81.54;99988.22;343738;28;1190;-69
2022/10/17 00:59:27;;;;;;;6.10;2.10;;;;;;;15.34;81.30;99980.69;342935;28;1822;-69
2022/10/17 00:59:42;;;;;;;7.38;2.10;;;;;;;15.28;81.53;99990.63;342327;28;1783;-69
2022/10/17 00:59:56;;;;;;;5.80;2.25;;;;;;;15.25;81.50;99985.53;342259;28;1012;-69
2022/10/17 01:00:09;;;;;;;5.07;2.30;;;;;;;15.22;81.81;99990.91;341572;28;1020;-69
2022/10/17 01:00:23;;;;;;;4.80;2.22;;;;;;;15.18;81.84;99987.59;340959;28;1377;-69
2022/10/17 01:00:35;;;;;;;5.78;2.33;;;;;;;15.14;81.89;99992.09;342306;28;1330;-69
2022/10/17 01:00:47;;;;;;;5.30;2.30;;;;;;;15.09;82.03;99991.47;340979;29;1041;-69
2022/10/17 01:01:01;;;;;;;4.30;2.10;;;;;;;14.97;82.45;99990.28;340895;29;1239;-69
2022/10/17 01:01:14;;;;;;;4.32;2.10;;;;;;;14.93;82.93;99990.47;340940;29;1063;-69
2022/10/17 01:01:26;;;;;;;3.60;2.10;;;;;;;14.96;83.05;99991.19;340799;29;1040;-69
2022/10/17 01:01:40;;;;;;;5.20;2.10;;;;;;;14.97;82.86;99992.06;340922;29;1254;-69
2022/10/17 01:02:10;;;;;;;5.70;2.15;;;;;;;15.05;82.81;99995.16;341014;29;1068;-69
2022/10/17 01:02:22;;;;;;;3.53;2.10;;;;;;;15.06;82.94;99991.59;340726;28;1525;-69
2022/10/17 01:02:34;;;;;;;3.70;2.20;;;;;;;15.06;82.82;99996.00;341509;28;1154;-70
2022/10/17 01:02:47;;;;;;;5.30;2.28;;;;;;;15.01;82.71;99993.59;342649;28;1467;-70
2022/10/17 01:02:59;;;;;;;5.10;2.40;;;;;;;15.02;82.92;99995.28;342501;28;1689;-69
2022/10/17 01:03:11;;;;;;;4.45;2.55;;;;;;;14.96;82.97;99992.94;342007;28;1886;-69
2022/10/17 01:03:23;;;;;;;3.42;2.33;;;;;;;14.98;83.15;99993.72;342417;28;1768;-69
2022/10/17 01:03:35;;;;;;;2.95;2.28;;;;;;;15.00;83.02;100001.53;342594;28;1074;-70
2022/10/17 01:03:46;;;;;;;3.67;2.10;;;;;;;15.01;83.11;99998.84;342253;28;1095;-69
2022/10/17 01:03:58;;;;;;;5.22;2.20;;;;;;;14.97;83.07;99992.88;342567;28;1054;-69
2022/10/17 01:04:10;;;;;;;5.07;2.25;;;;;;;15.00;83.16;99997.13;342487;28;1091;-69
2022/10/17 01:04:22;;;;;;;3.63;2.25;;;;;;;15.02;82.89;99990.06;342137;28;1428;-69
2022/10/17 01:04:37;;;;;;;2.42;2.20;;;;;;;15.00;82.98;99991.06;342585;28;1274;-69
2022/10/17 01:04:53;;;;;;;3.85;2.58;;;;;;;15.04;82.99;99998.69;342442;28;1393;-69